sensor_id;sensor_type;location;lat;lon;timestamp;pressure;altitude;pressure_sealevel;temperature;humidity
32251;BME280;41295;48.518;9.206;2022-09-17T00:01:52;96836.91;;;12.48;65.36
32251;BME280;41295;48.518;9.206;2022-09-17T00:03:57;96844.06;;;12.44;64.73
32251;BME280;41295;48.518;9.206;2022-09-17T00:06:06;96845.84;;;12.44;65.68
32251;BME280;41295;48.518;9.206;2022-09-17T00:08:11;96842.53;;;12.40;65.62
32251;BME280;41295;48.518;9.206;2022-09-17T00:10:15;96843.56;;;12.37;65.91
32251;BME280;41295;48.518;9.206;2022-09-17T00:12:17;96841.84;;;12.36;65.90
32251;BME280;41295;48.518;9.206;2022-09-17T00:14:20;96846.25;;;12.36;65.96
32251;BME280;41295;48.518;9.206;2022-09-17T00:16:26;96846.63;;;12.28;66.19
32251;BME280;41295;48.518;9.206;2022-09-17T00:18:30;96847.25;;;12.33;66.43
32251;BME280;41295;48.518;9.206;2022-09-17T00:20:37;96839.66;;;12.29;67.04
32251;BME280;41295;48.518;9.206;2022-09-17T00:22:40;96845.78;;;12.27;66.94
32251;BME280;41295;48.518;9.206;2022-09-17T00:24:43;96853.19;;;12.19;66.82
32251;BME280;41295;48.518;9.206;2022-09-17T00:26:46;96852.34;;;12.19;67.74
32251;BME280;41295;48.518;9.206;2022-09-17T00:28:50;96851.34;;;12.21;67.52
32251;BME280;41295;48.518;9.206;2022-09-17T00:30:52;96860.13;;;12.20;67.59
32251;BME280;41295;48.518;9.206;2022-09-17T00:32:55;96864.34;;;12.23;68.28
32251;BME280;41295;48.518;9.206;2022-09-17T00:34:59;96863.41;;;12.24;68.30
32251;BME280;41295;48.518;9.206;2022-09-17T00:37:02;96863.34;;;12.25;68.08
32251;BME280;41295;48.518;9.206;2022-09-17T00:39:06;96866.69;;;12.27;68.24
32251;BME280;41295;48.518;9.206;2022-09-17T00:41:09;96867.34;;;12.33;68.21
32251;BME280;41295;48.518;9.206;2022-09-17T00:43:11;96862.03;;;12.34;67.90
32251;BME280;41295;48.518;9.206;2022-09-17T00:45:14;96862.63;;;12.39;68.30
32251;BME280;41295;48.518;9.206;2022-09-17T00:47:22;96862.63;;;12.39;68.00
32251;BME280;41295;48.518;9.206;2022-09-17T00:49:28;96860.94;;;12.38;67.55
32251;BME280;41295;48.518;9.206;2022-09-17T00:51:35;96856.78;;;12.34;67.11
32251;BME280;41295;48.518;9.206;2022-09-17T00:53:41;96855.09;;;12.33;67.25
32251;BME280;41295;48.518;9.206;2022-09-17T00:55:47;96862.03;;;12.34;67.12
32251;BME280;41295;48.518;9.206;2022-09-17T00:57:54;96862.31;;;12.28;67.42
32251;BME280;41295;48.518;9.206;2022-09-17T00:59:58;96859.97;;;12.23;66.75
32251;BME280;41295;48.518;9.206;2022-09-17T01:02:01;96866.00;;;12.24;67.10
32251;BME280;41295;48.518;9.206;2022-09-17T01:04:04;96861.88;;;12.20;67.28
32251;BME280;41295;48.518;9.206;2022-09-17T01:06:13;96862.56;;;12.23;67.75
32251;BME280;41295;48.518;9.206;2022-09-17T01:08:23;96864.25;;;12.24;67.65
32251;BME280;41295;48.518;9.206;2022-09-17T01:10:38;96860.66;;;12.27;67.40
32251;BME280;41295;48.518;9.206;2022-09-17T01:13:05;96857.25;;;12.25;66.99
32251;BME280;41295;48.518;9.206;2022-09-17T01:15:20;96863.19;;;12.29;67.16
32251;BME280;41295;48.518;9.206;2022-09-17T01:17:28;96861.25;;;12.32;67.05
32251;BME280;41295;48.518;9.206;2022-09-17T01:20:04;96864.84;;;12.30;66.72
32251;BME280;41295;48.518;9.206;2022-09-17T01:22:12;96853.31;;;12.34;67.21
32251;BME280;41295;48.518;9.206;2022-09-17T01:24:48;96858.31;;;12.38;67.34
32251;BME280;41295;48.518;9.206;2022-09-17T01:29:34;96863.53;;;12.38;66.90
32251;BME280;41295;48.518;9.206;2022-09-17T01:31:50;96869.31;;;12.27;66.38
32251;BME280;41295;48.518;9.206;2022-09-17T01:33:59;96860.72;;;12.25;66.85
32251;BME280;41295;48.518;9.206;2022-09-17T01:36:12;96864.09;;;12.27;67.08
32251;BME280;41295;48.518;9.206;2022-09-17T01:38:25;96867.47;;;12.30;67.19
32251;BME280;41295;48.518;9.206;2022-09-17T01:40:35;96869.31;;;12.27;66.54
32251;BME280;41295;48.518;9.206;2022-09-17T01:42:47;96878.41;;;12.20;66.61
32251;BME280;41295;48.518;9.206;2022-09-17T01:44:55;96873.13;;;12.22;66.76
32251;BME280;41295;48.518;9.206;2022-09-17T01:47:08;96869.47;;;12.24;66.28
32251;BME280;41295;48.518;9.206;2022-09-17T01:49:16;96866.78;;;12.26;66.56
32251;BME280;41295;48.518;9.206;2022-09-17T01:51:21;96865.97;;;12.25;66.49
32251;BME280;41295;48.518;9.206;2022-09-17T01:53:30;96860.66;;;12.27;67.14
32251;BME280;41295;48.518;9.206;2022-09-17T01:55:37;96858.72;;;12.31;67.25
32251;BME280;41295;48.518;9.206;2022-09-17T01:57:46;96864.72;;;12.33;66.86
32251;BME280;41295;48.518;9.206;2022-09-17T01:59:52;96864.84;;;12.30;67.10
32251;BME280;41295;48.518;9.206;2022-09-17T02:01:59;96874.50;;;12.29;67.07
32251;BME280;41295;48.518;9.206;2022-09-17T02:04:09;96868.72;;;12.22;67.10
32251;BME280;41295;48.518;9.206;2022-09-17T02:06:16;96865.47;;;12.35;65.62
32251;BME280;41295;48.518;9.206;2022-09-17T02:08:22;96867.72;;;12.25;66.37
32251;BME280;41295;48.518;9.206;2022-09-17T02:10:29;96863.47;;;12.22;67.13
32251;BME280;41295;48.518;9.206;2022-09-17T02:12:37;96865.41;;;12.19;67.62
32251;BME280;41295;48.518;9.206;2022-09-17T02:14:46;96862.78;;;12.19;67.07
32251;BME280;41295;48.518;9.206;2022-09-17T02:16:53;96873.31;;;12.17;67.33
32251;BME280;41295;48.518;9.206;2022-09-17T02:19:01;96866.50;;;12.14;66.35
32251;BME280;41295;48.518;9.206;2022-09-17T02:21:14;96861.94;;;12.00;67.09
32251;BME280;41295;48.518;9.206;2022-09-17T02:23:21;96863.47;;;12.05;67.67
32251;BME280;41295;48.518;9.206;2022-09-17T02:25:32;96868.47;;;11.91;67.58
32251;BME280;41295;48.518;9.206;2022-09-17T02:27:42;96862.22;;;11.94;67.98
32251;BME280;41295;48.518;9.206;2022-09-17T02:29:48;96860.69;;;11.90;66.92
32251;BME280;41295;48.518;9.206;2022-09-17T02:31:51;96862.16;;;11.78;69.27
32251;BME280;41295;48.518;9.206;2022-09-17T02:33:59;96875.53;;;11.72;69.23
32251;BME280;41295;48.518;9.206;2022-09-17T02:36:03;96865.63;;;11.78;68.79
32251;BME280;41295;48.518;9.206;2022-09-17T02:38:08;96871.69;;;11.79;68.50
32251;BME280;41295;48.518;9.206;2022-09-17T02:40:12;96871.75;;;11.77;68.76
32251;BME280;41295;48.518;9.206;2022-09-17T02:42:21;96863.63;;;11.84;69.29
32251;BME280;41295;48.518;9.206;2022-09-17T02:44:32;96867.16;;;11.83;68.84
32251;BME280;41295;48.518;9.206;2022-09-17T02:46:58;96865.91;;;11.90;68.85
32251;BME280;41295;48.518;9.206;2022-09-17T02:49:25;96860.41;;;11.96;68.20
32251;BME280;41295;48.518;9.206;2022-09-17T02:51:34;96865.00;;;11.91;67.73
32251;BME280;41295;48.518;9.206;2022-09-17T02:53:47;96861.25;;;11.97;68.36
32251;BME280;41295;48.518;9.206;2022-09-17T02:55:59;96861.94;;;12.00;68.00
32251;BME280;41295;48.518;9.206;2022-09-17T02:58:11;96859.84;;;12.07;68.33
32251;BME280;41295;48.518;9.206;2022-09-17T03:00:17;96859.09;;;11.87;67.08
32251;BME280;41295;48.518;9.206;2022-09-17T03:02:23;96861.47;;;11.92;68.72
32251;BME280;41295;48.518;9.206;2022-09-17T03:04:28;96860.63;;;11.91;68.85
32251;BME280;41295;48.518;9.206;2022-09-17T03:06:32;96862.75;;;11.83;68.46
32251;BME280;41295;48.518;9.206;2022-09-17T03:08:36;96860.38;;;11.78;69.05
32251;BME280;41295;48.518;9.206;2022-09-17T03:10:42;96855.75;;;11.66;68.90
32251;BME280;41295;48.518;9.206;2022-09-17T03:12:44;96854.84;;;11.67;70.00
32251;BME280;41295;48.518;9.206;2022-09-17T03:14:47;96858.00;;;11.74;68.84
32251;BME280;41295;48.518;9.206;2022-09-17T03:16:50;96867.44;;;11.76;68.23
32251;BME280;41295;48.518;9.206;2022-09-17T03:18:52;96865.31;;;11.48;69.22
32251;BME280;41295;48.518;9.206;2022-09-17T03:20:55;96859.88;;;11.52;70.65
32251;BME280;41295;48.518;9.206;2022-09-17T03:22:57;96864.59;;;11.63;71.06
32251;BME280;41295;48.518;9.206;2022-09-17T03:25:00;96857.22;;;11.35;69.30
32251;BME280;41295;48.518;9.206;2022-09-17T03:27:04;96867.72;;;11.52;70.45
32251;BME280;41295;48.518;9.206;2022-09-17T03:29:07;96858.22;;;11.32;69.32
32251;BME280;41295;48.518;9.206;2022-09-17T03:31:09;96865.72;;;11.21;70.31
32251;BME280;41295;48.518;9.206;2022-09-17T03:33:12;96865.44;;;11.27;70.09
32251;BME280;41295;48.518;9.206;2022-09-17T03:35:15;96869.09;;;11.23;69.81
32251;BME280;41295;48.518;9.206;2022-09-17T03:37:17;96875.50;;;11.35;68.56
32251;BME280;41295;48.518;9.206;2022-09-17T03:39:20;96867.97;;;11.28;70.33
32251;BME280;41295;48.518;9.206;2022-09-17T03:41:23;96868.94;;;11.26;70.03
32251;BME280;41295;48.518;9.206;2022-09-17T03:43:28;96863.19;;;11.19;70.33
32251;BME280;41295;48.518;9.206;2022-09-17T03:45:30;96876.59;;;11.30;70.99
32251;BME280;41295;48.518;9.206;2022-09-17T03:47:33;96868.44;;;11.37;69.12
32251;BME280;41295;48.518;9.206;2022-09-17T03:49:36;96868.28;;;11.40;69.93
32251;BME280;41295;48.518;9.206;2022-09-17T03:51:38;96871.38;;;11.30;70.22
32251;BME280;41295;48.518;9.206;2022-09-17T03:53:41;96873.41;;;11.24;70.58
32251;BME280;41295;48.518;9.206;2022-09-17T03:55:44;96875.66;;;11.31;71.06
32251;BME280;41295;48.518;9.206;2022-09-17T03:57:46;96872.06;;;11.34;70.76
32251;BME280;41295;48.518;9.206;2022-09-17T03:59:50;96868.25;;;11.22;70.54
32251;BME280;41295;48.518;9.206;2022-09-17T04:01:53;96873.41;;;11.24;70.76
32251;BME280;41295;48.518;9.206;2022-09-17T04:03:56;96872.41;;;11.26;70.57
32251;BME280;41295;48.518;9.206;2022-09-17T04:05:59;96874.88;;;11.29;70.53
32251;BME280;41295;48.518;9.206;2022-09-17T04:08:01;96885.13;;;11.15;70.40
32251;BME280;41295;48.518;9.206;2022-09-17T04:10:05;96879.13;;;11.13;71.55
32251;BME280;41295;48.518;9.206;2022-09-17T04:12:07;96878.22;;;11.14;71.59
32251;BME280;41295;48.518;9.206;2022-09-17T04:14:10;96877.09;;;11.19;71.95
32251;BME280;41295;48.518;9.206;2022-09-17T04:16:14;96882.44;;;10.97;71.81
32251;BME280;41295;48.518;9.206;2022-09-17T04:18:16;96877.72;;;11.05;70.54
32251;BME280;41295;48.518;9.206;2022-09-17T04:20:19;96879.88;;;10.95;71.81
32251;BME280;41295;48.518;9.206;2022-09-17T04:22:22;96881.81;;;11.11;70.47
32251;BME280;41295;48.518;9.206;2022-09-17T04:24:24;96880.97;;;11.11;71.10
32251;BME280;41295;48.518;9.206;2022-09-17T04:26:27;96885.41;;;11.09;72.52
32251;BME280;41295;48.518;9.206;2022-09-17T04:28:29;96882.66;;;11.12;71.89
32251;BME280;41295;48.518;9.206;2022-09-17T04:30:32;96888.97;;;11.06;72.35
32251;BME280;41295;48.518;9.206;2022-09-17T04:32:36;96893.94;;;11.12;71.89
32251;BME280;41295;48.518;9.206;2022-09-17T04:34:38;96892.88;;;11.16;71.42
32251;BME280;41295;48.518;9.206;2022-09-17T04:36:41;96904.78;;;11.03;70.81
32251;BME280;41295;48.518;9.206;2022-09-17T04:38:46;96908.50;;;10.97;72.47
32251;BME280;41295;48.518;9.206;2022-09-17T04:40:49;96909.44;;;10.96;72.60
32251;BME280;41295;48.518;9.206;2022-09-17T04:42:52;96915.28;;;11.01;72.82
32251;BME280;41295;48.518;9.206;2022-09-17T04:44:55;96912.47;;;11.06;73.14
32251;BME280;41295;48.518;9.206;2022-09-17T04:46:58;96919.38;;;10.88;71.78
32251;BME280;41295;48.518;9.206;2022-09-17T04:49:02;96919.38;;;10.88;72.84
32251;BME280;41295;48.518;9.206;2022-09-17T04:51:05;96919.88;;;10.96;73.58
32251;BME280;41295;48.518;9.206;2022-09-17T04:53:07;96915.00;;;10.88;72.02
32251;BME280;41295;48.518;9.206;2022-09-17T04:55:10;96915.03;;;10.67;72.83
32251;BME280;41295;48.518;9.206;2022-09-17T04:57:13;96912.19;;;11.12;71.31
32251;BME280;41295;48.518;9.206;2022-09-17T04:59:16;96915.53;;;11.16;71.00
32251;BME280;41295;48.518;9.206;2022-09-17T05:01:18;96920.03;;;11.12;71.47
32251;BME280;41295;48.518;9.206;2022-09-17T05:03:21;96920.03;;;11.12;71.48
32251;BME280;41295;48.518;9.206;2022-09-17T05:05:25;96921.84;;;11.10;71.23
32251;BME280;41295;48.518;9.206;2022-09-17T05:07:27;96922.91;;;11.45;69.86
32251;BME280;41295;48.518;9.206;2022-09-17T05:09:30;96932.09;;;11.34;70.06
32251;BME280;41295;48.518;9.206;2022-09-17T05:11:33;96935.91;;;11.27;71.01
32251;BME280;41295;48.518;9.206;2022-09-17T05:13:35;96932.38;;;11.28;70.46
32251;BME280;41295;48.518;9.206;2022-09-17T05:15:38;96933.50;;;11.22;71.25
32251;BME280;41295;48.518;9.206;2022-09-17T05:17:41;96934.06;;;11.10;70.92
32251;BME280;41295;48.518;9.206;2022-09-17T05:19:43;96935.94;;;11.06;71.71
32251;BME280;41295;48.518;9.206;2022-09-17T05:21:47;96938.56;;;11.06;72.80
32251;BME280;41295;48.518;9.206;2022-09-17T05:23:50;96940.59;;;10.99;71.92
32251;BME280;41295;48.518;9.206;2022-09-17T05:25:56;96942.03;;;11.06;70.27
32251;BME280;41295;48.518;9.206;2022-09-17T05:27:59;96942.66;;;11.12;70.44
32251;BME280;41295;48.518;9.206;2022-09-17T05:30:03;96952.38;;;11.08;71.39
32251;BME280;41295;48.518;9.206;2022-09-17T05:32:05;96947.09;;;11.10;71.95
32251;BME280;41295;48.518;9.206;2022-09-17T05:34:08;96943.78;;;11.06;70.93
32251;BME280;41295;48.518;9.206;2022-09-17T05:36:10;96948.16;;;11.05;71.32
32251;BME280;41295;48.518;9.206;2022-09-17T05:38:14;96952.31;;;11.10;71.50
32251;BME280;41295;48.518;9.206;2022-09-17T05:40:18;96948.66;;;11.14;71.72
32251;BME280;41295;48.518;9.206;2022-09-17T05:42:21;96950.72;;;11.26;70.75
32251;BME280;41295;48.518;9.206;2022-09-17T05:44:23;96954.81;;;11.32;70.49
32251;BME280;41295;48.518;9.206;2022-09-17T05:46:27;96962.50;;;11.35;70.30
32251;BME280;41295;48.518;9.206;2022-09-17T05:48:29;96954.81;;;11.32;69.60
32251;BME280;41295;48.518;9.206;2022-09-17T05:50:32;96965.97;;;11.36;70.21
32251;BME280;41295;48.518;9.206;2022-09-17T05:52:35;96959.03;;;11.35;69.90
32251;BME280;41295;48.518;9.206;2022-09-17T05:54:39;96968.75;;;11.31;70.31
32251;BME280;41295;48.518;9.206;2022-09-17T05:56:41;96975.63;;;11.34;70.60
32251;BME280;41295;48.518;9.206;2022-09-17T05:58:44;96978.38;;;11.30;69.83
32251;BME280;41295;48.518;9.206;2022-09-17T06:00:46;96980.84;;;11.34;70.43
32251;BME280;41295;48.518;9.206;2022-09-17T06:02:53;96976.41;;;11.36;70.45
32251;BME280;41295;48.518;9.206;2022-09-17T06:04:56;96989.38;;;11.37;70.64
32251;BME280;41295;48.518;9.206;2022-09-17T06:07:03;96989.88;;;11.46;70.57
32251;BME280;41295;48.518;9.206;2022-09-17T06:09:07;96994.19;;;11.47;70.33
32251;BME280;41295;48.518;9.206;2022-09-17T06:11:11;96990.88;;;11.43;70.36
32251;BME280;41295;48.518;9.206;2022-09-17T06:13:14;96989.94;;;11.44;70.58
32251;BME280;41295;48.518;9.206;2022-09-17T06:15:17;96989.31;;;11.39;69.90
32251;BME280;41295;48.518;9.206;2022-09-17T06:17:19;96983.16;;;11.40;70.23
32251;BME280;41295;48.518;9.206;2022-09-17T06:19:22;96979.78;;;11.38;70.22
32251;BME280;41295;48.518;9.206;2022-09-17T06:21:25;96978.00;;;11.38;70.08
32251;BME280;41295;48.518;9.206;2022-09-17T06:23:30;96979.78;;;11.38;70.01
32251;BME280;41295;48.518;9.206;2022-09-17T06:25:35;96979.66;;;11.41;69.60
32251;BME280;41295;48.518;9.206;2022-09-17T06:27:39;96981.47;;;11.39;69.79
32251;BME280;41295;48.518;9.206;2022-09-17T06:29:42;96981.63;;;11.36;69.87
32251;BME280;41295;48.518;9.206;2022-09-17T06:31:46;96988.59;;;11.35;70.11
32251;BME280;41295;48.518;9.206;2022-09-17T06:33:49;96975.25;;;11.22;69.12
32251;BME280;41295;48.518;9.206;2022-09-17T06:35:55;96989.88;;;11.26;69.16
32251;BME280;41295;48.518;9.206;2022-09-17T06:37:58;96983.38;;;11.16;70.72
32251;BME280;41295;48.518;9.206;2022-09-17T06:40:00;96985.03;;;11.17;70.80
32251;BME280;41295;48.518;9.206;2022-09-17T06:42:05;96990.00;;;11.23;70.09
32251;BME280;41295;48.518;9.206;2022-09-17T06:44:09;96991.97;;;11.18;69.75
32251;BME280;41295;48.518;9.206;2022-09-17T06:46:11;97003.28;;;11.38;68.87
32251;BME280;41295;48.518;9.206;2022-09-17T06:48:16;97002.66;;;11.33;69.08
32251;BME280;41295;48.518;9.206;2022-09-17T06:50:19;97002.91;;;11.26;69.82
32251;BME280;41295;48.518;9.206;2022-09-17T06:52:21;97002.91;;;11.26;69.42
32251;BME280;41295;48.518;9.206;2022-09-17T06:54:24;97004.91;;;11.40;67.94
32251;BME280;41295;48.518;9.206;2022-09-17T06:56:27;97002.09;;;11.45;67.25
32251;BME280;41295;48.518;9.206;2022-09-17T06:58:30;97007.16;;;11.48;67.38
32251;BME280;41295;48.518;9.206;2022-09-17T07:00:34;96996.50;;;11.34;68.96
32251;BME280;41295;48.518;9.206;2022-09-17T07:02:37;97001.44;;;11.40;69.54
32251;BME280;41295;48.518;9.206;2022-09-17T07:04:39;97005.69;;;11.42;69.76
32251;BME280;41295;48.518;9.206;2022-09-17T07:06:42;97007.34;;;11.43;66.80
32251;BME280;41295;48.518;9.206;2022-09-17T07:08:45;96995.00;;;11.28;67.88
32251;BME280;41295;48.518;9.206;2022-09-17T07:10:48;97007.44;;;11.42;68.02
32251;BME280;41295;48.518;9.206;2022-09-17T07:12:51;97006.75;;;11.58;66.28
32251;BME280;41295;48.518;9.206;2022-09-17T07:14:54;97005.13;;;11.55;67.72
32251;BME280;41295;48.518;9.206;2022-09-17T07:16:57;97013.31;;;11.66;66.63
32251;BME280;41295;48.518;9.206;2022-09-17T07:19:00;97012.53;;;11.84;66.18
32251;BME280;41295;48.518;9.206;2022-09-17T07:21:04;97010.50;;;11.52;67.26
32251;BME280;41295;48.518;9.206;2022-09-17T07:23:07;97016.19;;;11.60;66.81
32251;BME280;41295;48.518;9.206;2022-09-17T07:25:10;97016.91;;;11.64;66.58
32251;BME280;41295;48.518;9.206;2022-09-17T07:27:13;97014.84;;;11.32;67.19
32251;BME280;41295;48.518;9.206;2022-09-17T07:29:15;97019.09;;;11.54;68.74
32251;BME280;41295;48.518;9.206;2022-09-17T07:31:18;97013.16;;;11.70;65.89
32251;BME280;41295;48.518;9.206;2022-09-17T07:33:26;97011.09;;;11.96;65.27
32251;BME280;41295;48.518;9.206;2022-09-17T07:35:29;97017.06;;;11.61;65.50
32251;BME280;41295;48.518;9.206;2022-09-17T07:37:32;97020.69;;;11.76;66.46
32251;BME280;41295;48.518;9.206;2022-09-17T07:39:34;97016.72;;;12.06;64.98
32251;BME280;41295;48.518;9.206;2022-09-17T07:41:37;97022.41;;;11.77;65.36
32251;BME280;41295;48.518;9.206;2022-09-17T07:43:41;97023.31;;;11.76;66.20
32251;BME280;41295;48.518;9.206;2022-09-17T07:45:44;97025.94;;;11.76;66.86
32251;BME280;41295;48.518;9.206;2022-09-17T07:47:46;97031.22;;;11.74;67.71
32251;BME280;41295;48.518;9.206;2022-09-17T07:49:50;97030.75;;;11.66;67.53
32251;BME280;41295;48.518;9.206;2022-09-17T07:51:53;97040.34;;;11.65;68.65
32251;BME280;41295;48.518;9.206;2022-09-17T07:53:57;97042.59;;;11.73;69.74
32251;BME280;41295;48.518;9.206;2022-09-17T07:56:00;97040.25;;;11.67;68.70
32251;BME280;41295;48.518;9.206;2022-09-17T07:58:03;97042.88;;;11.67;69.67
32251;BME280;41295;48.518;9.206;2022-09-17T08:00:06;97045.78;;;11.61;67.93
32251;BME280;41295;48.518;9.206;2022-09-17T08:02:11;97055.84;;;11.49;67.22
32251;BME280;41295;48.518;9.206;2022-09-17T08:04:14;97051.00;;;11.61;68.61
32251;BME280;41295;48.518;9.206;2022-09-17T08:06:20;97055.72;;;11.91;67.17
32251;BME280;41295;48.518;9.206;2022-09-17T08:08:23;97050.38;;;11.55;67.78
32251;BME280;41295;48.518;9.206;2022-09-17T08:10:25;97053.47;;;11.64;67.14
32251;BME280;41295;48.518;9.206;2022-09-17T08:12:28;97055.25;;;11.83;65.72
32251;BME280;41295;48.518;9.206;2022-09-17T08:14:31;97054.81;;;11.73;68.27
32251;BME280;41295;48.518;9.206;2022-09-17T08:16:33;97060.03;;;11.92;69.13
32251;BME280;41295;48.518;9.206;2022-09-17T08:18:36;97067.03;;;11.91;68.51
32251;BME280;41295;48.518;9.206;2022-09-17T08:20:39;97058.50;;;11.88;67.73
32251;BME280;41295;48.518;9.206;2022-09-17T08:22:43;97058.56;;;11.86;67.42
32251;BME280;41295;48.518;9.206;2022-09-17T08:24:50;97061.66;;;11.95;68.69
32251;BME280;41295;48.518;9.206;2022-09-17T08:26:53;97062.72;;;11.90;67.35
32251;BME280;41295;48.518;9.206;2022-09-17T08:28:55;97069.34;;;11.98;68.39
32251;BME280;41295;48.518;9.206;2022-09-17T08:30:59;97069.22;;;11.82;69.50
32251;BME280;41295;48.518;9.206;2022-09-17T08:33:03;97068.31;;;11.83;68.29
32251;BME280;41295;48.518;9.206;2022-09-17T08:35:06;97067.09;;;11.71;70.20
32251;BME280;41295;48.518;9.206;2022-09-17T08:37:08;97066.81;;;11.77;70.83
32251;BME280;41295;48.518;9.206;2022-09-17T08:39:12;97070.25;;;11.77;70.24
32251;BME280;41295;48.518;9.206;2022-09-17T08:41:23;97068.34;;;11.62;68.99
32251;BME280;41295;48.518;9.206;2022-09-17T08:43:29;97068.44;;;11.60;69.53
32251;BME280;41295;48.518;9.206;2022-09-17T08:45:32;97077.22;;;11.38;70.44
32251;BME280;41295;48.518;9.206;2022-09-17T08:47:38;97078.47;;;11.29;71.77
32251;BME280;41295;48.518;9.206;2022-09-17T08:49:48;97087.88;;;11.34;72.40
32251;BME280;41295;48.518;9.206;2022-09-17T08:52:14;97080.41;;;11.45;69.92
32251;BME280;41295;48.518;9.206;2022-09-17T08:54:27;97083.94;;;11.63;68.67
32251;BME280;41295;48.518;9.206;2022-09-17T08:56:35;97085.03;;;11.38;68.48
32251;BME280;41295;48.518;9.206;2022-09-17T08:58:42;97090.97;;;11.42;69.95
32251;BME280;41295;48.518;9.206;2022-09-17T09:00:52;97091.84;;;11.62;69.38
32251;BME280;41295;48.518;9.206;2022-09-17T09:03:10;97094.50;;;11.41;70.78
32251;BME280;41295;48.518;9.206;2022-09-17T13:54:37;97073.16;;;12.84;65.13
32251;BME280;41295;48.518;9.206;2022-09-17T13:56:42;97084.13;;;12.73;65.13
32251;BME280;41295;48.518;9.206;2022-09-17T13:58:46;97076.75;;;12.81;66.03
32251;BME280;41295;48.518;9.206;2022-09-17T14:00:52;97071.06;;;12.73;66.69
32251;BME280;41295;48.518;9.206;2022-09-17T14:05:37;97069.53;;;13.04;65.56
32251;BME280;41295;48.518;9.206;2022-09-17T14:07:45;97059.59;;;13.45;66.84
32251;BME280;41295;48.518;9.206;2022-09-17T14:09:54;97056.53;;;13.87;61.93
32251;BME280;41295;48.518;9.206;2022-09-17T14:11:56;97069.16;;;14.12;60.72
32251;BME280;41295;48.518;9.206;2022-09-17T14:14:39;97066.50;;;14.28;61.96
32251;BME280;41295;48.518;9.206;2022-09-17T14:16:47;97068.13;;;14.31;59.78
32251;BME280;41295;48.518;9.206;2022-09-17T14:18:56;97080.22;;;14.34;61.38
32251;BME280;41295;48.518;9.206;2022-09-17T14:21:05;97081.41;;;14.12;61.38
32251;BME280;41295;48.518;9.206;2022-09-17T14:23:08;97071.59;;;13.99;61.20
32251;BME280;41295;48.518;9.206;2022-09-17T14:25:18;97066.78;;;13.91;61.48
32251;BME280;41295;48.518;9.206;2022-09-17T14:27:45;97065.53;;;14.15;60.46
32251;BME280;41295;48.518;9.206;2022-09-17T14:30:04;97061.19;;;14.30;61.29
32251;BME280;41295;48.518;9.206;2022-09-17T14:32:13;97058.09;;;14.54;59.09
32251;BME280;41295;48.518;9.206;2022-09-17T14:34:20;97061.94;;;14.79;59.08
32251;BME280;41295;48.518;9.206;2022-09-17T14:36:23;97059.38;;;14.94;57.70
32251;BME280;41295;48.518;9.206;2022-09-17T14:38:31;97066.44;;;15.22;56.88
32251;BME280;41295;48.518;9.206;2022-09-17T14:40:42;97062.25;;;15.34;55.80
32251;BME280;41295;48.518;9.206;2022-09-17T14:42:45;97056.78;;;15.37;56.90
32251;BME280;41295;48.518;9.206;2022-09-17T14:44:55;97045.34;;;15.24;57.01
32251;BME280;41295;48.518;9.206;2022-09-17T14:47:01;97057.25;;;15.15;58.15
32251;BME280;41295;48.518;9.206;2022-09-17T14:49:19;97045.16;;;15.27;56.81
32251;BME280;41295;48.518;9.206;2022-09-17T14:51:27;97052.66;;;15.19;58.05
32251;BME280;41295;48.518;9.206;2022-09-17T14:53:32;97047.13;;;15.23;55.48
32251;BME280;41295;48.518;9.206;2022-09-17T14:55:39;97051.81;;;15.47;56.22
32251;BME280;41295;48.518;9.206;2022-09-17T14:57:42;97054.16;;;15.37;56.06
32251;BME280;41295;48.518;9.206;2022-09-17T14:59:47;97050.22;;;15.30;55.06
32251;BME280;41295;48.518;9.206;2022-09-17T15:01:51;97051.72;;;15.20;55.03
32251;BME280;41295;48.518;9.206;2022-09-17T15:04:09;97052.09;;;15.28;54.59
32251;BME280;41295;48.518;9.206;2022-09-17T15:06:19;97044.31;;;15.26;55.36
32251;BME280;41295;48.518;9.206;2022-09-17T15:08:23;97048.06;;;15.22;54.83
32251;BME280;41295;48.518;9.206;2022-09-17T15:10:26;97035.78;;;15.67;54.77
32251;BME280;41295;48.518;9.206;2022-09-17T15:12:30;97034.72;;;15.69;54.25
32251;BME280;41295;48.518;9.206;2022-09-17T15:14:36;97041.19;;;15.78;54.46
32251;BME280;41295;48.518;9.206;2022-09-17T15:16:45;97033.50;;;15.75;53.64
32251;BME280;41295;48.518;9.206;2022-09-17T15:18:52;97038.00;;;15.44;53.79
32251;BME280;41295;48.518;9.206;2022-09-17T15:20:59;97029.97;;;15.18;55.58
32251;BME280;41295;48.518;9.206;2022-09-17T15:23:09;97035.22;;;15.18;53.79
32251;BME280;41295;48.518;9.206;2022-09-17T15:25:20;97030.97;;;15.30;54.50
32251;BME280;41295;48.518;9.206;2022-09-17T15:27:28;97033.16;;;15.23;54.69
32251;BME280;41295;48.518;9.206;2022-09-17T15:29:33;97030.16;;;15.14;54.07
32251;BME280;41295;48.518;9.206;2022-09-17T15:31:37;97027.22;;;15.05;55.09
32251;BME280;41295;48.518;9.206;2022-09-17T15:33:39;97024.03;;;15.14;54.82
32251;BME280;41295;48.518;9.206;2022-09-17T15:35:57;97022.13;;;14.87;56.12
32251;BME280;41295;48.518;9.206;2022-09-17T15:38:01;97036.22;;;14.70;56.31
32251;BME280;41295;48.518;9.206;2022-09-17T15:40:28;97033.94;;;14.63;57.15
32251;BME280;41295;48.518;9.206;2022-09-17T15:42:31;97031.16;;;14.66;56.59
32251;BME280;41295;48.518;9.206;2022-09-17T15:44:34;97035.53;;;14.82;56.24
32251;BME280;41295;48.518;9.206;2022-09-17T15:46:37;97033.22;;;14.61;55.96
32251;BME280;41295;48.518;9.206;2022-09-17T15:48:40;97033.94;;;14.63;55.97
32251;BME280;41295;48.518;9.206;2022-09-17T15:50:50;97031.50;;;14.60;56.09
32251;BME280;41295;48.518;9.206;2022-09-17T15:53:09;97035.44;;;14.37;56.81
32251;BME280;41295;48.518;9.206;2022-09-17T15:55:30;97042.13;;;14.42;56.70
32251;BME280;41295;48.518;9.206;2022-09-17T15:57:33;97033.94;;;14.33;56.16
32251;BME280;41295;48.518;9.206;2022-09-17T15:59:37;97036.00;;;14.11;57.45
32251;BME280;41295;48.518;9.206;2022-09-17T16:01:50;97030.66;;;14.13;57.69